createdAt,value
2018-05-01T00:01:46.294Z,11.31
2018-05-01T00:07:47.148Z,10
2018-05-01T00:13:47.856Z,10.59
2018-05-01T00:17:48.573Z,11.54
2018-05-01T00:23:49.316Z,12.21
2018-05-01T00:27:50.175Z,9.91
2018-05-01T00:33:50.885Z,12.33
2018-05-01T00:39:51.671Z,10.74
2018-05-01T00:43:52.390Z,10.22
2018-05-01T00:49:53.154Z,11.17
2018-05-01T00:53:53.751Z,11.69
2018-05-01T00:59:54.493Z,9.26
2018-05-01T01:05:55.153Z,11.3
2018-05-01T01:09:55.995Z,12.46
2018-05-01T01:15:56.587Z,8.9
2018-05-01T01:19:57.244Z,12.33
2018-05-01T01:25:58.024Z,11.62
2018-05-01T01:31:58.733Z,11.14
2018-05-01T01:35:59.427Z,10.74
2018-05-01T01:42:00.214Z,11.62
2018-05-01T01:46:00.866Z,10.06
2018-05-01T01:48:01.545Z,12.22
2018-05-01T01:52:02.718Z,12.55
2018-05-01T01:58:03.459Z,9.44
2018-05-01T02:02:04.167Z,9.25
2018-05-01T02:08:04.947Z,11.27
2018-05-01T02:12:05.713Z,11.45
2018-05-01T02:14:06.375Z,11.01
2018-05-01T02:18:07.044Z,10.05
2018-05-01T02:24:07.861Z,10.18
2018-05-01T02:28:08.543Z,10.11
2018-05-01T02:34:09.183Z,10.45
2018-05-01T02:38:09.842Z,9.69
2018-05-01T02:40:10.525Z,10.83
2018-05-01T02:44:11.249Z,11.64
2018-05-01T02:50:12.042Z,10.69
2018-05-01T02:54:12.655Z,10.77
2018-05-01T03:00:13.716Z,11.15
2018-05-01T03:04:14.549Z,11.21
2018-05-01T03:06:15.161Z,9.15
2018-05-01T03:10:15.934Z,10.98
2018-05-01T03:16:16.693Z,14.13
2018-05-01T03:20:17.321Z,11.1
2018-05-01T03:26:18.096Z,10.25
2018-05-01T03:30:18.798Z,9.51
2018-05-01T03:32:19.506Z,9.75
2018-05-01T03:36:20.302Z,10.13
2018-05-01T03:42:20.955Z,10.22
2018-05-01T03:46:21.612Z,11.45
2018-05-01T03:52:22.340Z,8
2018-05-01T03:56:23.025Z,11.11
2018-05-01T03:58:23.704Z,12.38
2018-05-01T04:02:24.362Z,10.17
2018-05-01T04:08:25.098Z,11.36
2018-05-01T04:12:25.824Z,9.88
2018-05-01T04:18:26.560Z,11.19
2018-05-01T04:22:27.264Z,11.43
2018-05-01T04:24:28.037Z,10.95
2018-05-01T04:28:28.770Z,11.28
2018-05-01T04:34:29.511Z,13.67
2018-05-01T04:38:30.228Z,10.67
2018-05-01T04:44:31.325Z,9.83
2018-05-01T04:48:32.073Z,10.13
2018-05-01T04:50:32.792Z,8.41
2018-05-01T04:54:33.539Z,9.64
2018-05-01T05:00:34.353Z,10.57
2018-05-01T05:04:35.069Z,10.36
2018-05-01T05:10:35.781Z,8.21
2018-05-01T05:14:36.553Z,10.59
2018-05-01T05:16:37.199Z,10.46
2018-05-01T05:20:38.020Z,11.38
2018-05-01T05:26:38.654Z,10.1
2018-05-01T05:30:39.536Z,8.13
2018-05-01T05:36:40.269Z,7.94
2018-05-01T05:40:40.998Z,9.49
2018-05-01T05:42:41.813Z,11.59
2018-05-01T05:46:42.431Z,8.33
2018-05-01T05:52:43.173Z,10.1
2018-05-01T05:56:43.999Z,9.39
2018-05-01T06:02:44.845Z,13.58
2018-05-01T06:06:45.612Z,10.01
2018-05-01T06:08:46.266Z,9.46
2018-05-01T06:12:47.070Z,11.38
2018-05-01T06:18:47.768Z,11.3
2018-05-01T06:22:48.428Z,11.69
2018-05-01T06:28:49.451Z,10.2
2018-05-01T06:32:50.207Z,12.34
2018-05-01T06:34:50.916Z,10.83
2018-05-01T06:38:51.574Z,9.98
2018-05-01T06:44:52.305Z,11.53
2018-05-01T06:48:52.995Z,10.73
2018-05-01T06:54:53.767Z,10.87
2018-05-01T06:58:54.462Z,9.7
2018-05-01T07:00:55.136Z,10.72
2018-05-01T07:04:55.792Z,10.87
2018-05-01T07:10:56.501Z,10.22
2018-05-01T07:14:57.195Z,11.46
2018-05-01T07:20:57.982Z,16.33
2018-05-01T07:24:58.708Z,13.62
2018-05-01T07:26:59.418Z,15.37
2018-05-01T07:31:00.201Z,15.27
2018-05-01T07:37:00.865Z,18.22
2018-05-01T07:41:01.574Z,18.23
2018-05-01T07:47:02.518Z,14.8
2018-05-01T07:51:03.334Z,16.19
2018-05-01T07:53:04.110Z,15.02
2018-05-01T07:57:04.816Z,18.43
2018-05-01T08:03:05.591Z,16.32
2018-05-01T08:07:06.400Z,18.77
2018-05-01T08:13:07.133Z,14.9
2018-05-01T08:17:07.977Z,16.17
2018-05-01T08:19:08.714Z,18.76
2018-05-01T08:23:09.433Z,18.66
2018-05-01T08:29:10.167Z,15.34
2018-05-01T08:33:11.010Z,15.72
2018-05-01T08:39:11.768Z,20.48
2018-05-01T08:45:12.906Z,18.22
2018-05-01T08:49:13.629Z,15.31
2018-05-01T08:55:14.566Z,16.19
2018-05-01T08:59:15.796Z,13.67
2018-05-01T09:05:16.603Z,16.3
2018-05-01T09:11:17.353Z,17.62
2018-05-01T09:15:18.498Z,16.09
2018-05-01T09:21:19.252Z,13.45
2018-05-01T09:25:19.940Z,16.1
2018-05-01T09:31:20.696Z,15.66
2018-05-01T09:37:21.466Z,18.08
2018-05-01T09:37:21.469Z,18.08
2018-05-01T09:41:22.194Z,19.96
2018-05-01T09:47:22.819Z,20.42
2018-05-01T09:51:23.618Z,18.46
2018-05-01T09:57:24.342Z,15.77
2018-05-01T10:03:25.026Z,15.11
2018-05-01T10:07:25.846Z,16.35
2018-05-01T10:13:26.515Z,16.55
2018-05-01T10:17:27.500Z,15.97
2018-05-01T10:23:28.176Z,19.4
2018-05-01T10:29:28.986Z,18.8
2018-05-01T10:33:29.676Z,16.64
2018-05-01T10:39:30.672Z,15.99
2018-05-01T10:43:31.332Z,21.05
2018-05-01T10:49:32.052Z,19.21
2018-05-01T10:55:32.889Z,23.04
2018-05-01T10:59:33.531Z,22.44
2018-05-01T11:05:34.286Z,18.59
2018-05-01T11:09:35.126Z,20.25
2018-05-01T11:15:35.807Z,19.46
2018-05-01T11:21:36.628Z,27.94
2018-05-01T11:25:37.254Z,25.46
2018-05-01T11:31:38.184Z,28.45
2018-05-01T11:35:38.930Z,24.63
2018-05-01T11:41:39.697Z,23.88
2018-05-01T11:47:40.477Z,21.41
2018-05-01T11:51:41.290Z,23.1
2018-05-01T11:57:41.998Z,17.43
2018-05-01T12:01:42.719Z,20.57
2018-05-01T12:07:43.459Z,18.77
2018-05-01T12:13:44.272Z,18.43
2018-05-01T12:17:44.888Z,19.08
2018-05-01T12:23:45.640Z,15.99
2018-05-01T12:27:46.452Z,15.19
2018-05-01T12:29:48.239Z,11.97
2018-05-01T12:33:49.103Z,13.65
2018-05-01T12:39:49.861Z,9.61
2018-05-01T12:43:50.680Z,9.31
2018-05-01T12:49:51.619Z,13.62
2018-05-01T12:53:52.670Z,9.4
2018-05-01T12:55:53.389Z,9.68
2018-05-01T12:59:54.080Z,10.35
2018-05-01T13:05:54.907Z,9.99
2018-05-01T13:09:55.595Z,12.36
2018-05-01T13:15:56.425Z,9.44
2018-05-01T13:19:57.755Z,8.38
2018-05-01T13:21:58.405Z,8.24
2018-05-01T13:25:59.128Z,8.88
2018-05-01T13:31:59.809Z,8.19
2018-05-01T13:36:00.559Z,9.18
2018-05-01T13:42:01.472Z,8.06
2018-05-01T13:46:02.185Z,9.07
2018-05-01T13:52:05.074Z,8.2
2018-05-01T13:52:05.197Z,8.76
2018-05-01T13:58:06.429Z,8.58
2018-05-01T14:02:07.300Z,9.1
2018-05-01T14:08:08.107Z,11.52
2018-05-01T14:12:08.779Z,11.28
2018-05-01T14:14:09.353Z,11.57
2018-05-01T14:18:10.130Z,12.51
2018-05-01T14:24:10.813Z,11.96
2018-05-01T14:28:11.493Z,12.06
2018-05-01T14:34:12.308Z,8.69
2018-05-01T14:38:13.432Z,8.71
2018-05-01T14:40:14.107Z,9.85
2018-05-01T14:44:14.742Z,8.87
2018-05-01T14:50:15.552Z,8.62
2018-05-01T14:54:16.381Z,9.36
2018-05-01T15:00:17.412Z,11.65
2018-05-01T15:04:18.213Z,15.45
2018-05-01T15:06:18.892Z,15.54
2018-05-01T15:10:19.625Z,12.95
2018-05-01T15:16:20.652Z,9.74
2018-05-01T15:20:21.408Z,10.11
2018-05-01T15:26:22.246Z,10
2018-05-01T15:30:23.134Z,8.55
2018-05-01T15:32:24.070Z,8.98
2018-05-01T15:36:24.789Z,9.66
2018-05-01T15:42:25.590Z,12.35
2018-05-01T15:46:26.409Z,10.36
2018-05-01T15:52:27.538Z,10.25
2018-05-01T15:56:28.440Z,9
2018-05-01T15:58:28.929Z,8.18
2018-05-01T16:02:29.587Z,9.46
2018-05-01T16:08:30.274Z,8.56
2018-05-01T16:12:30.996Z,9.31
2018-05-01T16:18:31.711Z,8.31
2018-05-01T16:22:32.357Z,8.39
2018-05-01T16:24:33.002Z,10.25
2018-05-01T16:28:33.772Z,9.53
2018-05-01T16:34:34.491Z,9.44
2018-05-01T16:38:35.136Z,8.86
2018-05-01T16:44:35.858Z,10.07
2018-05-01T16:48:36.649Z,11.04
2018-05-01T16:50:37.305Z,8
2018-05-01T16:54:38.055Z,9.18
2018-05-01T17:00:38.766Z,14.11
2018-05-01T17:04:39.496Z,11.17
2018-05-01T17:10:40.349Z,12.18
2018-05-01T17:14:41.026Z,11.01
2018-05-01T17:16:41.666Z,11.61
2018-05-01T17:20:42.398Z,11.2
2018-05-01T17:26:43.066Z,21.85
2018-05-01T17:30:43.793Z,21.78
2018-05-01T17:36:44.422Z,12.52
2018-05-01T17:40:45.398Z,11.79
2018-05-01T17:42:45.997Z,10.52
2018-05-01T17:46:46.673Z,9.09
2018-05-01T17:52:47.425Z,13.04
2018-05-01T17:56:48.155Z,11.81
2018-05-01T18:02:49.021Z,11.47
2018-05-01T18:06:49.796Z,11.36
2018-05-01T18:12:53.733Z,12.14
2018-05-01T18:12:53.848Z,12.89
2018-05-01T18:18:54.589Z,16.8
2018-05-01T18:22:55.390Z,20.22
2018-05-01T18:28:56.142Z,15.67
2018-05-01T18:32:56.854Z,16.48
2018-05-01T18:34:57.489Z,14.59
2018-05-01T18:38:58.122Z,16.08
2018-05-01T18:44:58.846Z,15.55
2018-05-01T18:48:59.450Z,16.46
2018-05-01T18:55:00.248Z,14.08
2018-05-01T18:59:01.003Z,15.59
2018-05-01T19:01:01.682Z,17.47
2018-05-01T19:05:02.375Z,18.41
2018-05-01T19:11:03.036Z,15.4
2018-05-01T19:15:03.712Z,14.29
2018-05-01T19:21:05.584Z,14.02
2018-05-01T19:25:06.339Z,13.69
2018-05-01T19:27:07.039Z,19.08
2018-05-01T19:31:07.851Z,16.2
2018-05-01T19:37:08.567Z,13.09
2018-05-01T19:41:09.279Z,15.82
2018-05-01T19:47:09.993Z,13.63
2018-05-01T19:51:10.771Z,12.85
2018-05-01T19:53:11.387Z,13.15
2018-05-01T19:57:12.105Z,11.96
2018-05-01T20:03:13.120Z,14.51
2018-05-01T20:07:13.762Z,15.3
2018-05-01T20:13:14.462Z,15.44
2018-05-01T20:17:15.199Z,15.38
2018-05-01T20:19:15.814Z,16.58
2018-05-01T20:23:16.595Z,17.95
2018-05-01T20:29:17.297Z,18.97
2018-05-01T20:33:18.018Z,19.33
2018-05-01T20:39:18.628Z,19.43
2018-05-01T20:45:19.768Z,20.54
2018-05-01T20:49:20.478Z,19.45
2018-05-01T20:55:21.337Z,16.77
2018-05-01T20:59:22.186Z,15.08
2018-05-01T21:05:22.796Z,16.11
2018-05-01T21:11:23.540Z,14.76
2018-05-01T21:15:24.546Z,15.77
2018-05-01T21:21:25.310Z,16.19
2018-05-01T21:25:26.048Z,16.39
2018-05-01T21:31:26.705Z,21.58
2018-05-01T21:37:27.535Z,20.07
2018-05-01T21:41:28.251Z,22.54
2018-05-01T21:47:28.864Z,23.87
2018-05-01T21:51:29.651Z,23.09
2018-05-01T21:57:30.324Z,22.58
2018-05-01T22:03:31.177Z,21.94
2018-05-01T22:07:31.889Z,21.98
2018-05-01T22:13:32.626Z,19.35
2018-05-01T22:17:33.342Z,20.16
2018-05-01T22:23:34.235Z,20.86
2018-05-01T22:29:35.113Z,25.31
2018-05-01T22:33:35.880Z,27.09
2018-05-01T22:39:36.512Z,26.93
2018-05-01T22:43:37.186Z,26.45
2018-05-01T22:49:37.863Z,26.14
2018-05-01T22:55:38.554Z,27.58
2018-05-01T22:59:39.252Z,28.58
2018-05-01T23:05:39.960Z,29.45
2018-05-01T23:09:40.646Z,28.79
2018-05-01T23:15:41.306Z,29.53
2018-05-01T23:21:42.012Z,29.72
2018-05-01T23:25:42.722Z,29.08
2018-05-01T23:31:43.485Z,30.18
2018-05-01T23:35:44.156Z,30.18
2018-05-01T23:41:44.923Z,27.55
2018-05-01T23:47:45.621Z,25.03
2018-05-01T23:51:46.467Z,25.17
2018-05-01T23:57:47.178Z,25.94
